sensor_id;sensor_type;location;lat;lon;timestamp;P1;durP1;ratioP1;P2;durP2;ratioP2
5696;SDS011;2873;50.966;7.210;2022-12-15T00:02:26;70.97;;;24.52;;
5696;SDS011;2873;50.966;7.210;2022-12-15T00:05:10;68.30;;;24.30;;
5696;SDS011;2873;50.966;7.210;2022-12-15T00:07:54;51.78;;;22.63;;
5696;SDS011;2873;50.966;7.210;2022-12-15T00:10:38;47.22;;;20.45;;
5696;SDS011;2873;50.966;7.210;2022-12-15T00:13:22;51.55;;;21.63;;
5696;SDS011;2873;50.966;7.210;2022-12-15T00:16:07;53.28;;;23.42;;
5696;SDS011;2873;50.966;7.210;2022-12-15T00:18:51;54.35;;;23.08;;
5696;SDS011;2873;50.966;7.210;2022-12-15T00:21:35;58.35;;;24.02;;
5696;SDS011;2873;50.966;7.210;2022-12-15T00:24:19;62.58;;;23.48;;
5696;SDS011;2873;50.966;7.210;2022-12-15T00:27:04;54.72;;;23.25;;
5696;SDS011;2873;50.966;7.210;2022-12-15T00:29:48;59.10;;;23.35;;
5696;SDS011;2873;50.966;7.210;2022-12-15T00:32:32;60.40;;;23.45;;
5696;SDS011;2873;50.966;7.210;2022-12-15T00:35:17;52.50;;;21.63;;
5696;SDS011;2873;50.966;7.210;2022-12-15T00:38:08;54.10;;;22.23;;
5696;SDS011;2873;50.966;7.210;2022-12-15T00:40:54;53.28;;;22.50;;
5696;SDS011;2873;50.966;7.210;2022-12-15T00:43:32;55.28;;;22.38;;
5696;SDS011;2873;50.966;7.210;2022-12-15T00:45:59;58.50;;;23.10;;
5696;SDS011;2873;50.966;7.210;2022-12-15T00:48:44;51.10;;;22.98;;
5696;SDS011;2873;50.966;7.210;2022-12-15T00:51:10;61.47;;;23.13;;
5696;SDS011;2873;50.966;7.210;2022-12-15T00:53:36;52.43;;;21.57;;
5696;SDS011;2873;50.966;7.210;2022-12-15T00:56:21;55.30;;;20.95;;
5696;SDS011;2873;50.966;7.210;2022-12-15T00:59:05;49.17;;;21.75;;
5696;SDS011;2873;50.966;7.210;2022-12-15T01:01:49;67.75;;;23.75;;
5696;SDS011;2873;50.966;7.210;2022-12-15T01:04:33;58.20;;;22.20;;
5696;SDS011;2873;50.966;7.210;2022-12-15T01:07:17;62.45;;;21.17;;
5696;SDS011;2873;50.966;7.210;2022-12-15T01:10:02;60.63;;;22.20;;
5696;SDS011;2873;50.966;7.210;2022-12-15T01:12:46;112.68;;;23.67;;
5696;SDS011;2873;50.966;7.210;2022-12-15T01:15:30;87.20;;;23.65;;
5696;SDS011;2873;50.966;7.210;2022-12-15T01:18:14;53.88;;;20.85;;
5696;SDS011;2873;50.966;7.210;2022-12-15T01:21:00;62.67;;;21.40;;
5696;SDS011;2873;50.966;7.210;2022-12-15T01:23:29;98.40;;;23.58;;
5696;SDS011;2873;50.966;7.210;2022-12-15T01:25:55;64.57;;;22.48;;
5696;SDS011;2873;50.966;7.210;2022-12-15T01:28:21;60.50;;;22.67;;
5696;SDS011;2873;50.966;7.210;2022-12-15T01:30:47;50.57;;;20.80;;
5696;SDS011;2873;50.966;7.210;2022-12-15T01:33:13;48.53;;;20.10;;
5696;SDS011;2873;50.966;7.210;2022-12-15T01:35:39;52.40;;;20.17;;
5696;SDS011;2873;50.966;7.210;2022-12-15T01:38:05;57.83;;;20.37;;
5696;SDS011;2873;50.966;7.210;2022-12-15T01:40:32;55.85;;;20.60;;
5696;SDS011;2873;50.966;7.210;2022-12-15T01:43:14;57.17;;;21.90;;
5696;SDS011;2873;50.966;7.210;2022-12-15T01:48:14;47.38;;;20.70;;
5696;SDS011;2873;50.966;7.210;2022-12-15T01:50:56;45.90;;;19.67;;
5696;SDS011;2873;50.966;7.210;2022-12-15T01:53:34;49.87;;;19.90;;
5696;SDS011;2873;50.966;7.210;2022-12-15T01:56:21;50.50;;;19.80;;
5696;SDS011;2873;50.966;7.210;2022-12-15T01:58:49;54.92;;;21.70;;
5696;SDS011;2873;50.966;7.210;2022-12-15T02:01:17;53.03;;;20.80;;
5696;SDS011;2873;50.966;7.210;2022-12-15T02:03:43;47.13;;;19.35;;
5696;SDS011;2873;50.966;7.210;2022-12-15T02:06:11;45.63;;;19.60;;
5696;SDS011;2873;50.966;7.210;2022-12-15T02:08:37;44.17;;;19.05;;
5696;SDS011;2873;50.966;7.210;2022-12-15T02:11:08;47.53;;;20.60;;
5696;SDS011;2873;50.966;7.210;2022-12-15T02:25:02;49.13;;;21.43;;
5696;SDS011;2873;50.966;7.210;2022-12-15T02:30:34;54.30;;;20.38;;
5696;SDS011;2873;50.966;7.210;2022-12-15T02:38:08;56.30;;;21.77;;
5696;SDS011;2873;50.966;7.210;2022-12-15T02:40:34;51.45;;;20.67;;
5696;SDS011;2873;50.966;7.210;2022-12-15T02:43:00;52.35;;;19.50;;
5696;SDS011;2873;50.966;7.210;2022-12-15T02:45:40;52.42;;;21.08;;
5696;SDS011;2873;50.966;7.210;2022-12-15T02:48:20;53.25;;;20.10;;
5696;SDS011;2873;50.966;7.210;2022-12-15T02:53:58;55.30;;;22.00;;
5696;SDS011;2873;50.966;7.210;2022-12-15T02:59:36;51.88;;;20.80;;
5696;SDS011;2873;50.966;7.210;2022-12-15T03:02:07;48.78;;;19.90;;
5696;SDS011;2873;50.966;7.210;2022-12-15T03:04:34;54.30;;;20.20;;
5696;SDS011;2873;50.966;7.210;2022-12-15T03:07:02;54.53;;;20.60;;
5696;SDS011;2873;50.966;7.210;2022-12-15T03:09:30;52.63;;;20.52;;
5696;SDS011;2873;50.966;7.210;2022-12-15T03:11:56;50.28;;;20.10;;
5696;SDS011;2873;50.966;7.210;2022-12-15T03:14:21;51.05;;;19.75;;
5696;SDS011;2873;50.966;7.210;2022-12-15T03:16:49;54.83;;;20.50;;
5696;SDS011;2873;50.966;7.210;2022-12-15T03:19:15;50.83;;;20.48;;
5696;SDS011;2873;50.966;7.210;2022-12-15T03:21:41;47.43;;;19.77;;
5696;SDS011;2873;50.966;7.210;2022-12-15T03:24:06;48.40;;;19.80;;
5696;SDS011;2873;50.966;7.210;2022-12-15T03:26:32;55.30;;;19.50;;
5696;SDS011;2873;50.966;7.210;2022-12-15T03:28:58;48.00;;;19.70;;
5696;SDS011;2873;50.966;7.210;2022-12-15T03:31:23;49.70;;;19.15;;
5696;SDS011;2873;50.966;7.210;2022-12-15T03:33:49;48.10;;;20.63;;
5696;SDS011;2873;50.966;7.210;2022-12-15T03:36:14;50.27;;;21.10;;
5696;SDS011;2873;50.966;7.210;2022-12-15T03:38:40;49.13;;;19.63;;
5696;SDS011;2873;50.966;7.210;2022-12-15T03:41:05;56.03;;;20.37;;
5696;SDS011;2873;50.966;7.210;2022-12-15T03:43:31;51.80;;;20.50;;
5696;SDS011;2873;50.966;7.210;2022-12-15T03:45:56;52.87;;;19.80;;
5696;SDS011;2873;50.966;7.210;2022-12-15T03:48:22;51.20;;;19.30;;
5696;SDS011;2873;50.966;7.210;2022-12-15T03:50:48;53.83;;;19.55;;
5696;SDS011;2873;50.966;7.210;2022-12-15T03:53:14;48.50;;;20.13;;
5696;SDS011;2873;50.966;7.210;2022-12-15T03:55:40;46.63;;;18.85;;
5696;SDS011;2873;50.966;7.210;2022-12-15T03:58:08;45.30;;;18.90;;
5696;SDS011;2873;50.966;7.210;2022-12-15T04:00:33;50.35;;;20.45;;
5696;SDS011;2873;50.966;7.210;2022-12-15T04:02:59;48.30;;;20.38;;
5696;SDS011;2873;50.966;7.210;2022-12-15T04:05:26;51.00;;;20.30;;
5696;SDS011;2873;50.966;7.210;2022-12-15T04:07:53;46.33;;;19.10;;
5696;SDS011;2873;50.966;7.210;2022-12-15T04:10:20;42.47;;;18.50;;
5696;SDS011;2873;50.966;7.210;2022-12-15T04:12:47;43.67;;;18.50;;
5696;SDS011;2873;50.966;7.210;2022-12-15T04:15:13;37.85;;;17.52;;
5696;SDS011;2873;50.966;7.210;2022-12-15T04:17:39;39.13;;;17.70;;
5696;SDS011;2873;50.966;7.210;2022-12-15T04:20:06;38.95;;;17.63;;
5696;SDS011;2873;50.966;7.210;2022-12-15T04:22:36;49.92;;;19.33;;
5696;SDS011;2873;50.966;7.210;2022-12-15T04:25:03;48.43;;;19.37;;
5696;SDS011;2873;50.966;7.210;2022-12-15T04:27:49;41.78;;;18.35;;
5696;SDS011;2873;50.966;7.210;2022-12-15T04:30:33;41.83;;;18.73;;
5696;SDS011;2873;50.966;7.210;2022-12-15T04:33:18;35.78;;;18.23;;
5696;SDS011;2873;50.966;7.210;2022-12-15T04:36:03;41.50;;;18.70;;
5696;SDS011;2873;50.966;7.210;2022-12-15T04:38:48;45.80;;;18.48;;
5696;SDS011;2873;50.966;7.210;2022-12-15T04:41:32;40.13;;;17.10;;
5696;SDS011;2873;50.966;7.210;2022-12-15T04:44:17;36.97;;;16.70;;
5696;SDS011;2873;50.966;7.210;2022-12-15T04:47:01;42.35;;;18.48;;
5696;SDS011;2873;50.966;7.210;2022-12-15T04:49:45;42.03;;;18.38;;
5696;SDS011;2873;50.966;7.210;2022-12-15T04:52:30;39.60;;;17.02;;
5696;SDS011;2873;50.966;7.210;2022-12-15T04:55:14;38.90;;;18.17;;
5696;SDS011;2873;50.966;7.210;2022-12-15T04:58:02;39.03;;;17.30;;
5696;SDS011;2873;50.966;7.210;2022-12-15T05:00:47;35.73;;;18.13;;
5696;SDS011;2873;50.966;7.210;2022-12-15T05:03:32;38.05;;;19.00;;
5696;SDS011;2873;50.966;7.210;2022-12-15T05:06:16;44.28;;;19.50;;
5696;SDS011;2873;50.966;7.210;2022-12-15T05:09:00;46.13;;;18.85;;
5696;SDS011;2873;50.966;7.210;2022-12-15T05:11:44;49.97;;;23.88;;
5696;SDS011;2873;50.966;7.210;2022-12-15T05:14:28;47.45;;;23.65;;
5696;SDS011;2873;50.966;7.210;2022-12-15T05:17:12;52.45;;;24.67;;
5696;SDS011;2873;50.966;7.210;2022-12-15T05:19:56;50.30;;;23.08;;
5696;SDS011;2873;50.966;7.210;2022-12-15T05:22:40;47.00;;;21.93;;
5696;SDS011;2873;50.966;7.210;2022-12-15T05:25:24;43.00;;;20.55;;
5696;SDS011;2873;50.966;7.210;2022-12-15T05:28:08;43.28;;;19.00;;
5696;SDS011;2873;50.966;7.210;2022-12-15T05:30:52;46.10;;;22.67;;
5696;SDS011;2873;50.966;7.210;2022-12-15T05:33:36;45.35;;;20.73;;
5696;SDS011;2873;50.966;7.210;2022-12-15T05:36:02;42.80;;;20.40;;
5696;SDS011;2873;50.966;7.210;2022-12-15T05:38:28;46.58;;;20.40;;
5696;SDS011;2873;50.966;7.210;2022-12-15T05:40:56;44.38;;;21.40;;
5696;SDS011;2873;50.966;7.210;2022-12-15T05:43:22;42.47;;;20.00;;
5696;SDS011;2873;50.966;7.210;2022-12-15T05:45:48;39.83;;;19.70;;
5696;SDS011;2873;50.966;7.210;2022-12-15T05:48:13;60.25;;;25.25;;
5696;SDS011;2873;50.966;7.210;2022-12-15T05:50:39;55.13;;;27.13;;
5696;SDS011;2873;50.966;7.210;2022-12-15T05:53:04;52.90;;;26.83;;
5696;SDS011;2873;50.966;7.210;2022-12-15T05:55:30;45.67;;;22.48;;
5696;SDS011;2873;50.966;7.210;2022-12-15T05:57:55;43.50;;;20.53;;
5696;SDS011;2873;50.966;7.210;2022-12-15T06:00:21;44.92;;;20.15;;
5696;SDS011;2873;50.966;7.210;2022-12-15T06:02:47;48.22;;;22.10;;
5696;SDS011;2873;50.966;7.210;2022-12-15T06:05:13;46.17;;;21.40;;
5696;SDS011;2873;50.966;7.210;2022-12-15T06:07:38;42.35;;;20.25;;
5696;SDS011;2873;50.966;7.210;2022-12-15T06:10:04;47.07;;;20.93;;
5696;SDS011;2873;50.966;7.210;2022-12-15T06:12:30;43.97;;;21.90;;
5696;SDS011;2873;50.966;7.210;2022-12-15T06:14:55;48.13;;;20.63;;
5696;SDS011;2873;50.966;7.210;2022-12-15T06:17:21;45.97;;;20.60;;
5696;SDS011;2873;50.966;7.210;2022-12-15T06:19:46;45.40;;;20.30;;
5696;SDS011;2873;50.966;7.210;2022-12-15T06:22:12;45.57;;;20.07;;
5696;SDS011;2873;50.966;7.210;2022-12-15T06:24:38;41.25;;;18.85;;
5696;SDS011;2873;50.966;7.210;2022-12-15T06:27:03;41.97;;;19.60;;
5696;SDS011;2873;50.966;7.210;2022-12-15T06:29:29;40.20;;;18.97;;
5696;SDS011;2873;50.966;7.210;2022-12-15T06:31:54;45.75;;;20.20;;
5696;SDS011;2873;50.966;7.210;2022-12-15T06:34:20;42.20;;;20.70;;
5696;SDS011;2873;50.966;7.210;2022-12-15T06:36:45;44.67;;;21.50;;
5696;SDS011;2873;50.966;7.210;2022-12-15T06:39:12;45.70;;;21.88;;
5696;SDS011;2873;50.966;7.210;2022-12-15T06:41:39;45.45;;;22.67;;
5696;SDS011;2873;50.966;7.210;2022-12-15T06:44:05;45.03;;;20.83;;
5696;SDS011;2873;50.966;7.210;2022-12-15T06:46:31;49.43;;;22.63;;
5696;SDS011;2873;50.966;7.210;2022-12-15T06:49:00;44.30;;;22.35;;
5696;SDS011;2873;50.966;7.210;2022-12-15T06:51:26;45.20;;;22.05;;
5696;SDS011;2873;50.966;7.210;2022-12-15T06:53:52;45.33;;;22.33;;
5696;SDS011;2873;50.966;7.210;2022-12-15T06:56:23;49.05;;;21.33;;
5696;SDS011;2873;50.966;7.210;2022-12-15T06:58:53;47.75;;;22.50;;
5696;SDS011;2873;50.966;7.210;2022-12-15T07:01:20;48.22;;;22.27;;
5696;SDS011;2873;50.966;7.210;2022-12-15T07:03:47;49.03;;;22.08;;
5696;SDS011;2873;50.966;7.210;2022-12-15T07:06:13;51.70;;;22.90;;
5696;SDS011;2873;50.966;7.210;2022-12-15T07:08:40;48.20;;;22.10;;
5696;SDS011;2873;50.966;7.210;2022-12-15T07:11:07;50.65;;;22.77;;
5696;SDS011;2873;50.966;7.210;2022-12-15T07:13:35;46.22;;;21.90;;
5696;SDS011;2873;50.966;7.210;2022-12-15T07:16:00;48.92;;;22.88;;
5696;SDS011;2873;50.966;7.210;2022-12-15T07:18:28;48.20;;;21.80;;
5696;SDS011;2873;50.966;7.210;2022-12-15T07:20:54;49.20;;;21.50;;
5696;SDS011;2873;50.966;7.210;2022-12-15T07:23:27;45.20;;;21.85;;
5696;SDS011;2873;50.966;7.210;2022-12-15T07:25:53;50.13;;;21.50;;
5696;SDS011;2873;50.966;7.210;2022-12-15T07:28:18;45.92;;;22.42;;
5696;SDS011;2873;50.966;7.210;2022-12-15T07:30:44;48.22;;;21.63;;
5696;SDS011;2873;50.966;7.210;2022-12-15T07:33:09;46.10;;;22.20;;
5696;SDS011;2873;50.966;7.210;2022-12-15T07:35:35;51.25;;;22.38;;
5696;SDS011;2873;50.966;7.210;2022-12-15T07:38:03;46.10;;;21.57;;
5696;SDS011;2873;50.966;7.210;2022-12-15T07:40:31;49.35;;;22.05;;
5696;SDS011;2873;50.966;7.210;2022-12-15T07:42:56;54.30;;;22.00;;
5696;SDS011;2873;50.966;7.210;2022-12-15T07:45:22;44.23;;;21.80;;
5696;SDS011;2873;50.966;7.210;2022-12-15T07:47:48;45.70;;;20.80;;
5696;SDS011;2873;50.966;7.210;2022-12-15T07:50:15;44.88;;;21.20;;
5696;SDS011;2873;50.966;7.210;2022-12-15T07:52:41;48.90;;;21.43;;
5696;SDS011;2873;50.966;7.210;2022-12-15T07:55:07;46.50;;;20.73;;
5696;SDS011;2873;50.966;7.210;2022-12-15T07:57:33;45.58;;;21.00;;
5696;SDS011;2873;50.966;7.210;2022-12-15T07:59:58;48.80;;;21.40;;
5696;SDS011;2873;50.966;7.210;2022-12-15T08:02:24;42.30;;;20.90;;
5696;SDS011;2873;50.966;7.210;2022-12-15T08:04:49;47.17;;;20.95;;
5696;SDS011;2873;50.966;7.210;2022-12-15T08:07:15;44.23;;;20.17;;
5696;SDS011;2873;50.966;7.210;2022-12-15T08:09:41;49.00;;;21.30;;
5696;SDS011;2873;50.966;7.210;2022-12-15T08:12:07;47.23;;;20.73;;
5696;SDS011;2873;50.966;7.210;2022-12-15T08:14:32;47.77;;;21.13;;
5696;SDS011;2873;50.966;7.210;2022-12-15T08:16:58;51.80;;;22.45;;
5696;SDS011;2873;50.966;7.210;2022-12-15T08:19:23;51.70;;;22.67;;
5696;SDS011;2873;50.966;7.210;2022-12-15T08:21:49;50.97;;;22.40;;
5696;SDS011;2873;50.966;7.210;2022-12-15T08:24:15;51.85;;;22.50;;
5696;SDS011;2873;50.966;7.210;2022-12-15T08:26:41;59.83;;;22.80;;
5696;SDS011;2873;50.966;7.210;2022-12-15T08:29:09;48.88;;;21.08;;
5696;SDS011;2873;50.966;7.210;2022-12-15T08:31:36;50.90;;;22.92;;
5696;SDS011;2873;50.966;7.210;2022-12-15T08:34:02;50.50;;;22.30;;
5696;SDS011;2873;50.966;7.210;2022-12-15T08:36:29;49.75;;;22.67;;
5696;SDS011;2873;50.966;7.210;2022-12-15T08:38:56;54.22;;;23.83;;
5696;SDS011;2873;50.966;7.210;2022-12-15T08:41:28;46.90;;;21.90;;
5696;SDS011;2873;50.966;7.210;2022-12-15T08:43:55;54.43;;;22.33;;
5696;SDS011;2873;50.966;7.210;2022-12-15T08:46:26;49.33;;;21.70;;
5696;SDS011;2873;50.966;7.210;2022-12-15T08:48:53;43.50;;;22.20;;
5696;SDS011;2873;50.966;7.210;2022-12-15T08:51:19;48.03;;;21.35;;
5696;SDS011;2873;50.966;7.210;2022-12-15T08:53:46;46.03;;;22.55;;
5696;SDS011;2873;50.966;7.210;2022-12-15T08:56:15;47.35;;;21.45;;
5696;SDS011;2873;50.966;7.210;2022-12-15T08:58:43;41.88;;;21.23;;
5696;SDS011;2873;50.966;7.210;2022-12-15T09:01:11;47.47;;;21.00;;
5696;SDS011;2873;50.966;7.210;2022-12-15T09:03:38;44.92;;;21.55;;
5696;SDS011;2873;50.966;7.210;2022-12-15T09:06:05;52.13;;;23.15;;
5696;SDS011;2873;50.966;7.210;2022-12-15T09:08:32;47.80;;;22.23;;
5696;SDS011;2873;50.966;7.210;2022-12-15T09:10:58;46.78;;;21.92;;
5696;SDS011;2873;50.966;7.210;2022-12-15T09:13:25;48.85;;;22.30;;
5696;SDS011;2873;50.966;7.210;2022-12-15T09:15:55;47.90;;;22.60;;
5696;SDS011;2873;50.966;7.210;2022-12-15T09:18:25;48.40;;;23.42;;
5696;SDS011;2873;50.966;7.210;2022-12-15T09:20:51;49.15;;;23.40;;
5696;SDS011;2873;50.966;7.210;2022-12-15T09:23:17;45.10;;;22.02;;
5696;SDS011;2873;50.966;7.210;2022-12-15T09:25:44;42.75;;;21.45;;
5696;SDS011;2873;50.966;7.210;2022-12-15T09:28:10;43.55;;;20.98;;
5696;SDS011;2873;50.966;7.210;2022-12-15T09:30:36;44.05;;;21.98;;
5696;SDS011;2873;50.966;7.210;2022-12-15T09:33:01;45.30;;;22.40;;
5696;SDS011;2873;50.966;7.210;2022-12-15T09:35:27;45.00;;;21.77;;
5696;SDS011;2873;50.966;7.210;2022-12-15T09:37:55;50.00;;;22.60;;
5696;SDS011;2873;50.966;7.210;2022-12-15T09:40:21;51.70;;;23.10;;
5696;SDS011;2873;50.966;7.210;2022-12-15T09:42:49;47.10;;;22.17;;
5696;SDS011;2873;50.966;7.210;2022-12-15T09:45:29;43.33;;;20.95;;
5696;SDS011;2873;50.966;7.210;2022-12-15T09:48:04;47.58;;;21.45;;
5696;SDS011;2873;50.966;7.210;2022-12-15T09:50:37;46.55;;;22.48;;
5696;SDS011;2873;50.966;7.210;2022-12-15T09:53:07;50.65;;;23.17;;
5696;SDS011;2873;50.966;7.210;2022-12-15T09:55:36;50.45;;;22.98;;
5696;SDS011;2873;50.966;7.210;2022-12-15T09:58:23;50.03;;;23.38;;
5696;SDS011;2873;50.966;7.210;2022-12-15T10:00:55;45.30;;;23.15;;
5696;SDS011;2873;50.966;7.210;2022-12-15T10:03:28;52.47;;;23.90;;
5696;SDS011;2873;50.966;7.210;2022-12-15T10:06:18;45.05;;;21.95;;
5696;SDS011;2873;50.966;7.210;2022-12-15T10:08:49;46.37;;;22.40;;
5696;SDS011;2873;50.966;7.210;2022-12-15T10:21:21;47.80;;;22.90;;
5696;SDS011;2873;50.966;7.210;2022-12-15T10:23:50;52.55;;;22.85;;
5696;SDS011;2873;50.966;7.210;2022-12-15T10:28:51;47.65;;;23.17;;
5696;SDS011;2873;50.966;7.210;2022-12-15T10:34:32;42.13;;;20.90;;
5696;SDS011;2873;50.966;7.210;2022-12-15T10:37:00;39.95;;;20.08;;
5696;SDS011;2873;50.966;7.210;2022-12-15T10:39:37;39.20;;;20.00;;
5696;SDS011;2873;50.966;7.210;2022-12-15T10:44:41;37.90;;;20.17;;
5696;SDS011;2873;50.966;7.210;2022-12-15T10:49:45;41.80;;;21.25;;
5696;SDS011;2873;50.966;7.210;2022-12-15T10:52:30;38.35;;;21.08;;
5696;SDS011;2873;50.966;7.210;2022-12-15T10:54:59;38.55;;;21.17;;
5696;SDS011;2873;50.966;7.210;2022-12-15T10:57:26;39.30;;;21.13;;
5696;SDS011;2873;50.966;7.210;2022-12-15T10:59:59;39.80;;;21.75;;
5696;SDS011;2873;50.966;7.210;2022-12-15T11:02:42;38.35;;;20.55;;
5696;SDS011;2873;50.966;7.210;2022-12-15T11:12:43;38.20;;;21.50;;
5696;SDS011;2873;50.966;7.210;2022-12-15T11:17:57;41.53;;;21.77;;
5696;SDS011;2873;50.966;7.210;2022-12-15T11:20:31;39.38;;;21.30;;
5696;SDS011;2873;50.966;7.210;2022-12-15T11:23:02;41.33;;;22.48;;
5696;SDS011;2873;50.966;7.210;2022-12-15T11:25:37;41.45;;;21.60;;
5696;SDS011;2873;50.966;7.210;2022-12-15T11:28:15;37.78;;;21.08;;
5696;SDS011;2873;50.966;7.210;2022-12-15T11:30:46;42.60;;;22.33;;
5696;SDS011;2873;50.966;7.210;2022-12-15T11:33:21;38.55;;;21.10;;
5696;SDS011;2873;50.966;7.210;2022-12-15T11:38:33;37.15;;;20.67;;
5696;SDS011;2873;50.966;7.210;2022-12-15T11:41:07;38.13;;;20.88;;
5696;SDS011;2873;50.966;7.210;2022-12-15T11:44:01;36.87;;;20.70;;
5696;SDS011;2873;50.966;7.210;2022-12-15T11:52:10;38.58;;;20.73;;
5696;SDS011;2873;50.966;7.210;2022-12-15T11:58:07;35.60;;;20.48;;
5696;SDS011;2873;50.966;7.210;2022-12-15T12:06:25;39.35;;;21.80;;
5696;SDS011;2873;50.966;7.210;2022-12-15T12:09:28;37.27;;;20.80;;
5696;SDS011;2873;50.966;7.210;2022-12-15T12:14:43;36.53;;;20.33;;
5696;SDS011;2873;50.966;7.210;2022-12-15T12:17:36;33.83;;;19.37;;
5696;SDS011;2873;50.966;7.210;2022-12-15T12:20:13;37.47;;;20.73;;
5696;SDS011;2873;50.966;7.210;2022-12-15T12:23:04;39.63;;;21.20;;
5696;SDS011;2873;50.966;7.210;2022-12-15T12:25:41;38.83;;;20.70;;
5696;SDS011;2873;50.966;7.210;2022-12-15T12:28:15;38.85;;;21.63;;
5696;SDS011;2873;50.966;7.210;2022-12-15T12:30:46;38.65;;;21.10;;
5696;SDS011;2873;50.966;7.210;2022-12-15T12:33:27;38.35;;;21.55;;
5696;SDS011;2873;50.966;7.210;2022-12-15T12:35:56;36.85;;;20.85;;
5696;SDS011;2873;50.966;7.210;2022-12-15T12:38:32;36.92;;;21.00;;
5696;SDS011;2873;50.966;7.210;2022-12-15T12:41:06;38.92;;;21.80;;
5696;SDS011;2873;50.966;7.210;2022-12-15T12:43:54;40.05;;;20.90;;
5696;SDS011;2873;50.966;7.210;2022-12-15T12:49:27;39.97;;;21.33;;
5696;SDS011;2873;50.966;7.210;2022-12-15T12:51:57;40.47;;;20.60;;
5696;SDS011;2873;50.966;7.210;2022-12-15T12:59:57;39.10;;;21.40;;
5696;SDS011;2873;50.966;7.210;2022-12-15T13:10:22;36.20;;;21.23;;
5696;SDS011;2873;50.966;7.210;2022-12-15T13:12:50;38.17;;;20.63;;
5696;SDS011;2873;50.966;7.210;2022-12-15T13:17:53;38.47;;;21.17;;
5696;SDS011;2873;50.966;7.210;2022-12-15T13:20:26;36.80;;;20.80;;
5696;SDS011;2873;50.966;7.210;2022-12-15T13:31:18;39.03;;;21.10;;
5696;SDS011;2873;50.966;7.210;2022-12-15T13:33:44;36.25;;;20.45;;
5696;SDS011;2873;50.966;7.210;2022-12-15T13:41:41;41.28;;;22.10;;
5696;SDS011;2873;50.966;7.210;2022-12-15T13:44:25;36.65;;;20.65;;
5696;SDS011;2873;50.966;7.210;2022-12-15T13:47:10;38.92;;;20.98;;
5696;SDS011;2873;50.966;7.210;2022-12-15T13:49:46;36.05;;;21.25;;
5696;SDS011;2873;50.966;7.210;2022-12-15T13:55:19;39.20;;;21.90;;
5696;SDS011;2873;50.966;7.210;2022-12-15T13:58:32;37.83;;;20.63;;
5696;SDS011;2873;50.966;7.210;2022-12-15T14:00:53;35.45;;;20.10;;
5696;SDS011;2873;50.966;7.210;2022-12-15T14:03:20;36.40;;;21.27;;
5696;SDS011;2873;50.966;7.210;2022-12-15T14:05:52;41.55;;;22.70;;
5696;SDS011;2873;50.966;7.210;2022-12-15T14:08:20;42.63;;;24.17;;
5696;SDS011;2873;50.966;7.210;2022-12-15T14:13:22;37.45;;;21.00;;
5696;SDS011;2873;50.966;7.210;2022-12-15T14:15:58;36.70;;;21.25;;
5696;SDS011;2873;50.966;7.210;2022-12-15T14:18:32;36.42;;;21.55;;
5696;SDS011;2873;50.966;7.210;2022-12-15T14:21:00;44.75;;;24.90;;
5696;SDS011;2873;50.966;7.210;2022-12-15T14:23:37;53.83;;;28.58;;
5696;SDS011;2873;50.966;7.210;2022-12-15T14:26:10;56.95;;;27.85;;
5696;SDS011;2873;50.966;7.210;2022-12-15T14:28:38;61.20;;;31.70;;
5696;SDS011;2873;50.966;7.210;2022-12-15T14:31:16;78.38;;;37.13;;
5696;SDS011;2873;50.966;7.210;2022-12-15T14:33:45;61.83;;;31.00;;
5696;SDS011;2873;50.966;7.210;2022-12-15T14:36:15;42.75;;;24.20;;
5696;SDS011;2873;50.966;7.210;2022-12-15T14:38:50;38.80;;;21.40;;
5696;SDS011;2873;50.966;7.210;2022-12-15T14:41:22;36.35;;;20.25;;
5696;SDS011;2873;50.966;7.210;2022-12-15T14:43:49;38.80;;;21.15;;
5696;SDS011;2873;50.966;7.210;2022-12-15T14:46:21;45.30;;;23.65;;
5696;SDS011;2873;50.966;7.210;2022-12-15T14:48:55;42.47;;;21.80;;
5696;SDS011;2873;50.966;7.210;2022-12-15T14:51:27;37.90;;;21.65;;
5696;SDS011;2873;50.966;7.210;2022-12-15T14:53:54;49.42;;;24.90;;
5696;SDS011;2873;50.966;7.210;2022-12-15T15:01:50;41.90;;;21.30;;
5696;SDS011;2873;50.966;7.210;2022-12-15T15:04:23;39.55;;;21.20;;
5696;SDS011;2873;50.966;7.210;2022-12-15T15:06:57;37.30;;;19.90;;
5696;SDS011;2873;50.966;7.210;2022-12-15T15:09:31;36.67;;;20.00;;
5696;SDS011;2873;50.966;7.210;2022-12-15T15:12:08;39.03;;;20.10;;
5696;SDS011;2873;50.966;7.210;2022-12-15T15:14:43;38.63;;;21.38;;
5696;SDS011;2873;50.966;7.210;2022-12-15T15:17:20;33.10;;;18.77;;
5696;SDS011;2873;50.966;7.210;2022-12-15T15:19:58;38.65;;;19.83;;
5696;SDS011;2873;50.966;7.210;2022-12-15T15:22:39;38.72;;;19.95;;
5696;SDS011;2873;50.966;7.210;2022-12-15T15:34:05;36.85;;;19.58;;
5696;SDS011;2873;50.966;7.210;2022-12-15T15:36:31;48.97;;;23.60;;
5696;SDS011;2873;50.966;7.210;2022-12-15T15:39:00;55.77;;;26.30;;
5696;SDS011;2873;50.966;7.210;2022-12-15T15:43:53;40.95;;;20.95;;
5696;SDS011;2873;50.966;7.210;2022-12-15T15:46:23;39.88;;;19.67;;
5696;SDS011;2873;50.966;7.210;2022-12-15T15:48:52;41.92;;;20.50;;
5696;SDS011;2873;50.966;7.210;2022-12-15T15:51:27;40.20;;;20.15;;
5696;SDS011;2873;50.966;7.210;2022-12-15T15:53:56;38.63;;;19.77;;
5696;SDS011;2873;50.966;7.210;2022-12-15T15:56:24;41.00;;;20.85;;
5696;SDS011;2873;50.966;7.210;2022-12-15T15:58:51;42.83;;;22.10;;
5696;SDS011;2873;50.966;7.210;2022-12-15T16:01:17;40.10;;;21.13;;
5696;SDS011;2873;50.966;7.210;2022-12-15T16:03:42;38.33;;;20.10;;
5696;SDS011;2873;50.966;7.210;2022-12-15T16:06:15;39.20;;;20.52;;
5696;SDS011;2873;50.966;7.210;2022-12-15T16:08:42;39.40;;;20.75;;
5696;SDS011;2873;50.966;7.210;2022-12-15T16:11:12;43.22;;;20.98;;
5696;SDS011;2873;50.966;7.210;2022-12-15T16:13:38;43.28;;;22.80;;
5696;SDS011;2873;50.966;7.210;2022-12-15T16:16:04;43.23;;;21.50;;
5696;SDS011;2873;50.966;7.210;2022-12-15T16:18:30;41.28;;;22.38;;
5696;SDS011;2873;50.966;7.210;2022-12-15T16:20:56;44.97;;;21.55;;
5696;SDS011;2873;50.966;7.210;2022-12-15T16:23:23;43.55;;;21.70;;
5696;SDS011;2873;50.966;7.210;2022-12-15T16:25:52;42.58;;;21.65;;
5696;SDS011;2873;50.966;7.210;2022-12-15T16:28:26;39.63;;;20.80;;
5696;SDS011;2873;50.966;7.210;2022-12-15T16:30:53;41.80;;;21.77;;
5696;SDS011;2873;50.966;7.210;2022-12-15T16:33:19;43.78;;;22.27;;
5696;SDS011;2873;50.966;7.210;2022-12-15T16:35:45;41.30;;;21.77;;
5696;SDS011;2873;50.966;7.210;2022-12-15T16:38:15;40.72;;;21.70;;
5696;SDS011;2873;50.966;7.210;2022-12-15T16:40:43;42.75;;;21.60;;
5696;SDS011;2873;50.966;7.210;2022-12-15T16:43:12;39.77;;;21.63;;
5696;SDS011;2873;50.966;7.210;2022-12-15T16:45:43;40.72;;;20.40;;
5696;SDS011;2873;50.966;7.210;2022-12-15T16:48:12;41.63;;;21.90;;
5696;SDS011;2873;50.966;7.210;2022-12-15T16:50:39;43.63;;;21.73;;
5696;SDS011;2873;50.966;7.210;2022-12-15T16:53:12;40.90;;;21.10;;
5696;SDS011;2873;50.966;7.210;2022-12-15T16:55:48;40.85;;;20.20;;
5696;SDS011;2873;50.966;7.210;2022-12-15T16:58:21;41.60;;;19.90;;
5696;SDS011;2873;50.966;7.210;2022-12-15T17:00:49;39.63;;;20.73;;
5696;SDS011;2873;50.966;7.210;2022-12-15T17:03:15;45.08;;;21.38;;
5696;SDS011;2873;50.966;7.210;2022-12-15T17:05:43;41.33;;;20.88;;
5696;SDS011;2873;50.966;7.210;2022-12-15T17:08:14;42.25;;;20.85;;
5696;SDS011;2873;50.966;7.210;2022-12-15T17:11:00;35.38;;;19.30;;
5696;SDS011;2873;50.966;7.210;2022-12-15T17:16:02;39.17;;;21.15;;
5696;SDS011;2873;50.966;7.210;2022-12-15T17:18:29;43.63;;;23.17;;
5696;SDS011;2873;50.966;7.210;2022-12-15T17:21:03;44.43;;;22.10;;
5696;SDS011;2873;50.966;7.210;2022-12-15T17:23:31;42.00;;;21.10;;
5696;SDS011;2873;50.966;7.210;2022-12-15T17:25:58;43.35;;;22.58;;
5696;SDS011;2873;50.966;7.210;2022-12-15T17:28:26;42.63;;;20.45;;
5696;SDS011;2873;50.966;7.210;2022-12-15T17:30:54;38.45;;;20.50;;
5696;SDS011;2873;50.966;7.210;2022-12-15T17:33:21;42.28;;;21.90;;